Time;durP1;ratioP1;P1;durP2;ratioP2;P2;SDS_P1;SDS_P2;PMS_P1;PMS_P2;Temp;Humidity;BMP_temperature;BMP_pressure;BME280_temperature;BME280_humidity;BME280_pressure;Samples;Min_cycle;Max_cycle;Signal;HPM_P1;HPM_P2
2021/09/22 00:00:08;;;;;;;26.60;24.33;;;8.80;99.90;;;;;;4987737;28;20506;-71
2021/09/22 00:02:37;;;;;;;26.30;24.17;;;8.70;99.90;;;;;;4983495;28;20467;-71
2021/09/22 00:05:04;;;;;;;28.70;26.37;;;8.70;99.90;;;;;;4985874;28;20457;-70
2021/09/22 00:07:31;;;;;;;27.97;24.97;;;8.70;99.90;;;;;;4982412;28;20460;-71
2021/09/22 00:09:59;;;;;;;28.73;26.00;;;8.60;99.90;;;;;;4984742;28;20492;-71
2021/09/22 00:12:26;;;;;;;29.27;26.80;;;8.60;99.90;;;;;;4983146;28;20490;-70
2021/09/22 00:14:53;;;;;;;29.53;26.57;;;8.60;99.90;;;;;;4982836;28;20983;-71
2021/09/22 00:17:21;;;;;;;29.23;26.53;;;8.50;99.90;;;;;;4980115;28;20466;-71
2021/09/22 00:19:50;;;;;;;31.47;28.83;;;8.50;99.90;;;;;;4982373;28;20972;-70
2021/09/22 00:22:17;;;;;;;30.63;27.80;;;8.50;99.90;;;;;;4989145;28;20528;-71
2021/09/22 00:24:45;;;;;;;29.50;26.83;;;8.50;99.90;;;;;;4986405;28;20462;-71
2021/09/22 00:27:13;;;;;;;30.37;27.67;;;8.40;99.90;;;;;;4984248;28;20465;-71
2021/09/22 00:29:40;;;;;;;28.63;26.10;;;8.30;99.90;;;;;;4991714;28;20462;-70
2021/09/22 00:32:07;;;;;;;27.63;25.40;;;8.20;99.90;;;;;;4986127;28;20465;-69
2021/09/22 00:34:35;;;;;;;29.43;26.70;;;8.20;99.90;;;;;;4980890;28;20486;-71
2021/09/22 00:37:04;;;;;;;30.37;27.77;;;8.20;99.90;;;;;;4989585;28;20925;-70
2021/09/22 00:39:34;;;;;;;29.20;26.67;;;8.10;99.90;;;;;;4976372;28;20593;-71
2021/09/22 00:42:01;;;;;;;29.87;26.40;;;8.10;99.90;;;;;;4992982;28;20465;-71
2021/09/22 00:44:28;;;;;;;29.63;27.13;;;8.10;99.90;;;;;;4986500;28;20972;-70
2021/09/22 00:46:55;;;;;;;29.97;27.27;;;8.00;99.90;;;;;;4991335;28;20756;-70
2021/09/22 00:49:23;;;;;;;29.47;26.97;;;8.00;99.90;;;;;;4988809;28;20470;-70
2021/09/22 00:51:51;;;;;;;27.57;25.13;;;8.00;99.90;;;;;;4985768;28;20459;-71
2021/09/22 00:54:21;;;;;;;29.77;26.80;;;8.00;99.90;;;;;;4988732;28;20465;-71
2021/09/22 00:56:47;;;;;;;29.97;27.23;;;8.00;99.90;;;;;;4985981;28;20960;-71
2021/09/22 00:59:15;;;;;;;28.57;26.03;;;8.00;99.90;;;;;;4976553;28;20482;-71
2021/09/22 01:01:49;;;;;;;29.00;26.50;;;8.00;99.90;;;;;;4984914;28;20468;-71
2021/09/22 01:04:16;;;;;;;29.23;26.73;;;8.00;99.90;;;;;;4989860;28;20466;-71
2021/09/22 01:06:45;;;;;;;29.50;26.80;;;7.90;99.90;;;;;;4986555;28;20922;-71
2021/09/22 01:09:12;;;;;;;30.33;27.33;;;7.90;99.90;;;;;;4986117;28;20465;-71
2021/09/22 01:11:41;;;;;;;29.10;26.57;;;7.90;99.90;;;;;;4983489;28;20479;-71
2021/09/22 01:14:08;;;;;;;30.00;27.40;;;7.90;99.90;;;;;;4978998;28;20457;-70
2021/09/22 01:16:41;;;;;;;31.13;28.23;;;7.90;99.90;;;;;;4981799;28;20463;-70
2021/09/22 01:19:08;;;;;;;30.80;27.87;;;7.80;99.90;;;;;;4981500;28;20483;-70
2021/09/22 01:21:38;;;;;;;31.50;28.23;;;7.90;99.90;;;;;;4990809;28;20461;-71
2021/09/22 01:24:05;;;;;;;30.90;28.10;;;7.90;99.90;;;;;;4986376;28;20454;-71
2021/09/22 01:26:34;;;;;;;31.00;28.40;;;7.80;99.90;;;;;;4983422;28;20446;-70
2021/09/22 01:29:01;;;;;;;31.47;28.50;;;7.80;99.90;;;;;;4990346;28;20478;-71
2021/09/22 01:31:28;;;;;;;32.43;29.07;;;7.70;99.90;;;;;;4991466;28;20476;-72
2021/09/22 01:33:55;;;;;;;30.67;28.07;;;7.70;99.90;;;;;;4984434;28;21064;-71
2021/09/22 01:36:21;;;;;;;30.73;28.10;;;7.80;99.90;;;;;;4991054;28;20941;-70
2021/09/22 01:38:50;;;;;;;30.80;28.17;;;7.80;99.90;;;;;;4986928;28;20827;-71
2021/09/22 01:41:17;;;;;;;30.70;28.10;;;7.70;99.90;;;;;;4979022;28;20884;-70
2021/09/22 01:43:45;;;;;;;32.10;29.30;;;7.70;99.90;;;;;;4995011;28;20453;-71
2021/09/22 01:46:12;;;;;;;35.17;31.43;;;7.60;99.90;;;;;;4985993;28;20968;-71
2021/09/22 01:48:40;;;;;;;30.87;28.17;;;7.50;99.90;;;;;;4981514;28;20463;-71
2021/09/22 01:51:09;;;;;;;31.13;28.33;;;7.50;99.90;;;;;;4985557;28;20815;-70
2021/09/22 01:53:37;;;;;;;31.80;28.83;;;7.50;99.90;;;;;;4990442;28;20463;-70
2021/09/22 01:56:08;;;;;;;32.17;29.07;;;7.40;99.90;;;;;;4984131;28;20458;-69
2021/09/22 01:58:35;;;;;;;32.60;29.50;;;7.40;99.90;;;;;;4979481;28;20469;-70
2021/09/22 02:01:04;;;;;;;31.63;29.00;;;7.40;99.90;;;;;;4976583;28;20497;-70
2021/09/22 02:03:34;;;;;;;32.17;29.37;;;7.40;99.90;;;;;;4985313;28;20938;-69
2021/09/22 02:06:01;;;;;;;32.07;29.37;;;7.30;99.90;;;;;;4989409;28;20465;-71
2021/09/22 02:08:29;;;;;;;34.73;31.03;;;7.30;99.90;;;;;;4981593;28;20461;-71
2021/09/22 02:10:56;;;;;;;31.77;29.07;;;7.20;99.90;;;;;;4979118;28;20478;-70
2021/09/22 02:13:26;;;;;;;32.30;29.23;;;7.20;99.90;;;;;;4983099;28;20813;-71
2021/09/22 02:15:55;;;;;;;31.17;28.60;;;7.20;99.90;;;;;;4982705;28;20985;-70
2021/09/22 02:18:21;;;;;;;33.83;30.43;;;7.10;99.90;;;;;;4975008;28;20488;-72
2021/09/22 02:20:48;;;;;;;31.73;28.83;;;7.10;99.90;;;;;;4988946;28;20496;-71
2021/09/22 02:23:16;;;;;;;32.73;29.90;;;7.20;99.90;;;;;;4987901;28;20460;-70
2021/09/22 02:25:43;;;;;;;34.40;31.07;;;7.10;99.90;;;;;;4980304;28;20550;-70
2021/09/22 02:28:09;;;;;;;32.37;29.37;;;7.10;99.90;;;;;;4989074;28;20466;-70
2021/09/22 02:30:38;;;;;;;32.67;29.57;;;7.10;99.90;;;;;;4986023;28;20462;-70
2021/09/22 02:33:05;;;;;;;34.30;30.90;;;7.20;99.90;;;;;;4982387;28;20828;-71
2021/09/22 02:35:32;;;;;;;32.77;29.77;;;7.20;99.90;;;;;;4983568;28;20487;-70
2021/09/22 02:38:00;;;;;;;34.37;30.97;;;7.20;99.90;;;;;;4987627;28;20457;-71
2021/09/22 02:40:28;;;;;;;32.73;29.70;;;7.10;99.90;;;;;;4979742;28;20491;-70
2021/09/22 02:42:55;;;;;;;34.13;30.87;;;7.10;99.90;;;;;;4985871;28;20463;-70
2021/09/22 02:45:22;;;;;;;32.90;30.10;;;7.10;99.90;;;;;;4981770;28;20460;-70
2021/09/22 02:47:51;;;;;;;35.60;30.10;;;7.10;99.90;;;;;;4981281;28;21368;-70
2021/09/22 02:50:18;;;;;;;33.23;30.33;;;7.00;99.90;;;;;;4993760;28;20465;-70
2021/09/22 02:52:47;;;;;;;34.00;30.80;;;7.10;99.90;;;;;;4986721;28;20549;-70
2021/09/22 02:55:14;;;;;;;33.60;30.50;;;7.00;99.90;;;;;;4974646;28;20970;-70
2021/09/22 02:57:41;;;;;;;32.97;29.87;;;7.00;99.90;;;;;;4985699;28;20470;-69
2021/09/22 03:00:10;;;;;;;33.53;30.47;;;7.00;99.90;;;;;;4978526;28;20489;-70
2021/09/22 03:02:39;;;;;;;33.37;30.27;;;6.90;99.90;;;;;;4986252;28;20459;-70
2021/09/22 03:05:09;;;;;;;34.73;31.43;;;6.90;99.90;;;;;;4982219;28;20767;-71
2021/09/22 03:07:36;;;;;;;36.10;30.90;;;6.90;99.90;;;;;;4978504;28;20461;-70
2021/09/22 03:10:05;;;;;;;32.17;29.47;;;6.90;99.90;;;;;;4980670;28;20464;-70
2021/09/22 03:12:32;;;;;;;34.63;31.37;;;6.80;99.90;;;;;;4989458;28;20482;-69
2021/09/22 03:14:59;;;;;;;35.00;30.20;;;6.70;99.90;;;;;;4984222;28;20478;-69
2021/09/22 03:17:27;;;;;;;32.70;29.63;;;6.70;99.90;;;;;;4982486;28;20647;-70
2021/09/22 03:19:55;;;;;;;33.43;30.37;;;6.70;99.90;;;;;;4973320;28;20561;-71
2021/09/22 03:22:25;;;;;;;33.20;29.87;;;6.70;99.90;;;;;;4982653;28;20469;-71
2021/09/22 03:24:52;;;;;;;33.53;30.33;;;6.80;99.90;;;;;;4975370;28;20481;-69
2021/09/22 03:27:19;;;;;;;32.20;29.37;;;6.70;99.90;;;;;;4988907;28;20458;-70
2021/09/22 03:29:45;;;;;;;33.40;30.33;;;6.70;99.90;;;;;;4989451;28;20459;-70
2021/09/22 03:32:14;;;;;;;34.27;30.90;;;6.80;99.90;;;;;;4988467;28;20469;-70
2021/09/22 03:34:41;;;;;;;31.67;28.67;;;6.80;99.90;;;;;;4979421;28;20487;-70
2021/09/22 03:37:10;;;;;;;33.30;30.20;;;6.80;99.90;;;;;;4973710;28;20559;-69
2021/09/22 03:39:39;;;;;;;32.47;29.30;;;6.80;99.90;;;;;;4976510;28;20533;-70
2021/09/22 03:42:06;;;;;;;33.43;30.20;;;6.80;99.90;;;;;;4983694;28;20939;-70
2021/09/22 03:44:33;;;;;;;32.97;30.10;;;6.70;99.90;;;;;;4981189;28;20467;-70
2021/09/22 03:47:00;;;;;;;33.97;30.70;;;6.70;99.90;;;;;;4984471;28;20458;-70
2021/09/22 03:49:28;;;;;;;34.30;31.10;;;6.70;99.90;;;;;;4989484;28;20475;-69
2021/09/22 03:51:55;;;;;;;34.57;31.37;;;6.70;99.90;;;;;;4990473;28;20488;-70
2021/09/22 03:54:23;;;;;;;34.67;31.10;;;6.70;99.90;;;;;;4982121;28;20474;-70
2021/09/22 03:56:52;;;;;;;34.73;31.43;;;6.70;99.90;;;;;;4980224;28;20466;-71
2021/09/22 03:59:20;;;;;;;33.80;30.70;;;6.60;99.90;;;;;;4985276;28;20458;-69
2021/09/22 04:01:47;;;;;;;32.83;29.60;;;6.70;99.90;;;;;;4989829;28;20901;-70
2021/09/22 04:04:14;;;;;;;34.27;30.80;;;6.70;99.90;;;;;;4993405;28;20463;-70
2021/09/22 04:06:41;;;;;;;34.40;30.90;;;6.70;99.90;;;;;;4985241;28;20885;-70
2021/09/22 04:09:10;;;;;;;33.43;30.23;;;6.80;99.90;;;;;;4983937;28;20972;-71
2021/09/22 04:11:40;;;;;;;30.70;27.97;;;6.70;99.90;;;;;;4988757;28;20561;-70
2021/09/22 04:14:08;;;;;;;33.10;30.00;;;6.70;99.90;;;;;;4986102;28;20457;-70
2021/09/22 04:16:35;;;;;;;33.67;30.50;;;6.70;99.90;;;;;;4985858;28;20466;-70
2021/09/22 04:19:04;;;;;;;34.83;31.30;;;6.60;99.90;;;;;;4991953;28;20458;-70
2021/09/22 04:21:32;;;;;;;31.50;28.47;;;6.60;99.90;;;;;;4987201;28;20500;-72
2021/09/22 04:24:00;;;;;;;33.97;30.47;;;6.60;99.90;;;;;;4984498;28;20461;-70
2021/09/22 04:26:27;;;;;;;33.23;30.10;;;6.60;99.90;;;;;;4981582;28;20459;-70
2021/09/22 04:28:55;;;;;;;34.83;31.23;;;6.60;99.90;;;;;;4973641;28;20479;-71
2021/09/22 04:31:24;;;;;;;35.10;31.73;;;6.60;99.90;;;;;;4976433;28;20456;-70
2021/09/22 04:33:53;;;;;;;35.93;32.00;;;6.70;99.90;;;;;;4984687;28;20467;-69
2021/09/22 04:36:21;;;;;;;34.40;31.13;;;6.70;99.90;;;;;;4991996;28;20474;-69
2021/09/22 04:38:48;;;;;;;34.20;30.70;;;6.80;99.90;;;;;;4989442;28;20497;-70
2021/09/22 04:41:15;;;;;;;35.10;31.50;;;6.70;99.90;;;;;;4988836;28;20490;-70
2021/09/22 04:43:43;;;;;;;34.97;31.57;;;6.60;99.90;;;;;;4986624;28;20467;-70
2021/09/22 04:46:11;;;;;;;35.63;31.83;;;6.70;99.90;;;;;;4987514;28;20470;-70
2021/09/22 04:48:42;;;;;;;33.83;30.57;;;6.70;99.90;;;;;;4978733;28;21002;-71
2021/09/22 04:51:09;;;;;;;33.30;30.07;;;6.60;99.90;;;;;;4993111;28;20461;-70
2021/09/22 04:53:36;;;;;;;33.93;30.40;;;6.60;99.90;;;;;;4984761;28;20463;-69
2021/09/22 04:56:05;;;;;;;35.40;31.90;;;6.60;99.90;;;;;;4985535;28;20455;-70
2021/09/22 04:58:33;;;;;;;35.47;31.87;;;6.50;99.90;;;;;;4986364;28;20451;-69
2021/09/22 05:01:01;;;;;;;33.30;30.20;;;6.50;99.90;;;;;;4984118;28;20492;-70
2021/09/22 05:03:29;;;;;;;34.60;31.10;;;6.50;99.90;;;;;;4984193;28;20457;-71
2021/09/22 05:05:58;;;;;;;35.20;31.93;;;6.50;99.90;;;;;;4984481;28;20958;-70
2021/09/22 05:08:25;;;;;;;33.73;30.53;;;6.50;99.90;;;;;;4982984;28;20469;-70
2021/09/22 05:10:53;;;;;;;32.27;28.60;;;6.50;99.90;;;;;;4975629;28;20474;-70
2021/09/22 05:13:22;;;;;;;33.80;30.50;;;6.50;99.90;;;;;;4990639;28;20574;-70
2021/09/22 05:15:49;;;;;;;32.93;29.77;;;6.50;99.90;;;;;;4987862;28;20506;-70
2021/09/22 05:18:19;;;;;;;33.10;30.10;;;6.50;99.90;;;;;;4985709;28;20461;-70
2021/09/22 05:20:47;;;;;;;33.20;29.90;;;6.40;99.90;;;;;;4978811;28;21000;-70
2021/09/22 05:23:16;;;;;;;33.87;30.57;;;6.40;99.90;;;;;;4976962;28;20473;-71
2021/09/22 05:25:45;;;;;;;34.13;30.80;;;6.40;99.90;;;;;;4975542;28;20480;-69
2021/09/22 05:28:12;;;;;;;34.53;30.93;;;6.40;99.90;;;;;;4983979;28;20477;-71
2021/09/22 05:30:40;;;;;;;33.70;30.20;;;6.40;99.90;;;;;;4994291;28;20949;-70
2021/09/22 05:33:10;;;;;;;34.30;31.20;;;6.40;99.90;;;;;;4990302;28;20461;-70
2021/09/22 05:35:37;;;;;;;35.53;32.03;;;6.40;99.90;;;;;;4982978;28;20479;-70
2021/09/22 05:38:04;;;;;;;35.77;32.17;;;6.40;99.90;;;;;;4984594;28;20464;-70
2021/09/22 05:40:33;;;;;;;37.33;33.60;;;6.40;99.90;;;;;;4990211;28;20479;-70
2021/09/22 05:43:00;;;;;;;36.60;32.83;;;6.40;99.90;;;;;;4985156;28;20770;-71
2021/09/22 05:45:27;;;;;;;35.83;32.43;;;6.40;99.90;;;;;;4977363;28;20464;-70
2021/09/22 05:47:55;;;;;;;35.37;31.67;;;6.40;99.90;;;;;;4983137;28;20596;-70
2021/09/22 05:50:22;;;;;;;34.17;30.97;;;6.40;99.90;;;;;;4987142;28;20673;-70
2021/09/22 05:52:50;;;;;;;33.10;29.90;;;6.40;99.90;;;;;;4979727;28;20462;-70
2021/09/22 05:55:18;;;;;;;33.73;30.60;;;6.50;99.90;;;;;;4980419;28;20464;-70
2021/09/22 05:57:47;;;;;;;34.97;31.30;;;6.50;99.90;;;;;;4979203;28;20974;-69
2021/09/22 06:00:16;;;;;;;34.13;30.83;;;6.50;99.90;;;;;;4993516;28;20463;-70
2021/09/22 06:02:44;;;;;;;34.70;31.30;;;6.50;99.90;;;;;;4990459;28;20824;-71
2021/09/22 06:05:11;;;;;;;35.10;31.70;;;6.60;99.90;;;;;;4987188;28;20563;-69
2021/09/22 06:07:38;;;;;;;33.60;30.07;;;6.70;99.90;;;;;;4978025;28;20462;-71
2021/09/22 06:10:06;;;;;;;34.60;31.37;;;6.80;99.90;;;;;;4984648;28;20460;-69
2021/09/22 06:12:33;;;;;;;32.87;29.87;;;6.90;99.90;;;;;;4986795;28;20481;-69
2021/09/22 06:15:01;;;;;;;33.70;30.60;;;7.00;99.90;;;;;;4986685;28;20462;-70
2021/09/22 06:17:29;;;;;;;33.40;30.30;;;7.10;99.90;;;;;;4978428;28;20456;-70
2021/09/22 06:19:56;;;;;;;32.43;29.37;;;7.20;99.90;;;;;;4981403;28;20467;-70
2021/09/22 06:22:25;;;;;;;33.80;30.17;;;7.30;99.90;;;;;;4978097;28;20520;-70
2021/09/22 06:24:52;;;;;;;33.87;30.67;;;7.40;99.90;;;;;;4973272;28;21056;-70
2021/09/22 06:27:20;;;;;;;33.43;30.00;;;7.50;99.90;;;;;;4982343;28;20988;-69
2021/09/22 06:29:47;;;;;;;33.03;29.93;;;7.70;99.90;;;;;;4984443;28;20548;-70
2021/09/22 06:32:16;;;;;;;36.03;31.67;;;7.80;99.90;;;;;;4983091;28;20618;-70
2021/09/22 06:34:43;;;;;;;34.27;31.17;;;7.90;99.90;;;;;;4972443;28;20987;-70
2021/09/22 06:37:12;;;;;;;34.60;31.27;;;8.10;99.90;;;;;;4971442;28;20955;-70
2021/09/22 06:39:40;;;;;;;33.80;30.27;;;8.20;99.90;;;;;;4982544;28;20459;-70
2021/09/22 06:42:07;;;;;;;43.53;31.57;;;8.30;99.90;;;;;;4975248;28;20974;-70
2021/09/22 06:44:34;;;;;;;34.53;31.37;;;8.40;99.90;;;;;;4979098;28;20463;-69
2021/09/22 06:47:02;;;;;;;32.67;29.83;;;8.60;99.90;;;;;;4980958;28;20546;-69
2021/09/22 06:49:31;;;;;;;33.27;30.33;;;8.70;99.90;;;;;;4975902;28;20464;-71
2021/09/22 06:52:00;;;;;;;34.23;30.80;;;8.80;99.90;;;;;;4977202;28;20469;-69
2021/09/22 06:54:28;;;;;;;33.93;30.67;;;9.00;99.90;;;;;;4978050;28;20526;-70
2021/09/22 06:56:56;;;;;;;34.80;30.83;;;9.10;99.90;;;;;;4982330;28;20464;-70
2021/09/22 06:59:23;;;;;;;34.40;30.90;;;9.20;99.90;;;;;;4978460;28;20794;-69
2021/09/22 07:01:50;;;;;;;35.93;32.20;;;9.30;99.90;;;;;;4988187;28;20895;-69
2021/09/22 07:04:18;;;;;;;34.60;30.97;;;9.50;99.90;;;;;;4985421;28;20453;-70
2021/09/22 07:06:46;;;;;;;38.00;32.37;;;9.60;99.90;;;;;;4981039;28;20468;-70
2021/09/22 07:09:14;;;;;;;46.40;34.40;;;9.80;99.90;;;;;;4984021;28;20467;-69
2021/09/22 07:11:41;;;;;;;35.60;31.80;;;9.90;99.90;;;;;;4982513;28;20938;-70
2021/09/22 07:14:08;;;;;;;43.17;34.37;;;10.00;99.90;;;;;;4988323;28;20549;-71
2021/09/22 07:16:35;;;;;;;39.57;31.80;;;10.20;99.90;;;;;;4982105;28;20942;-71
2021/09/22 07:19:02;;;;;;;41.33;32.70;;;10.30;99.90;;;;;;4985401;28;20471;-70
2021/09/22 07:21:30;;;;;;;48.47;34.50;;;10.30;99.90;;;;;;4976092;28;20493;-69
2021/09/22 07:23:58;;;;;;;47.20;33.00;;;10.50;99.90;;;;;;4993173;28;20934;-71
2021/09/22 07:26:26;;;;;;;43.20;34.93;;;10.60;99.90;;;;;;4978664;28;21072;-70
2021/09/22 07:28:53;;;;;;;47.43;36.13;;;10.80;99.90;;;;;;4978333;28;20458;-71
2021/09/22 07:31:20;;;;;;;47.73;36.30;;;11.00;99.90;;;;;;4983096;28;20958;-72
2021/09/22 07:33:48;;;;;;;42.53;37.90;;;11.20;99.90;;;;;;4981549;28;20510;-70
2021/09/22 07:36:16;;;;;;;47.20;37.77;;;11.40;99.90;;;;;;4991729;28;20482;-71
2021/09/22 07:38:45;;;;;;;39.37;35.10;;;11.50;99.90;;;;;;4981386;28;20455;-71
2021/09/22 07:41:14;;;;;;;53.20;36.90;;;11.60;99.90;;;;;;4985025;28;20482;-71
2021/09/22 07:43:41;;;;;;;45.13;35.93;;;11.70;99.90;;;;;;4984476;28;20505;-71
2021/09/22 07:46:08;;;;;;;39.77;34.13;;;11.90;99.90;;;;;;4970054;28;20473;-72
2021/09/22 07:48:35;;;;;;;48.80;34.13;;;12.10;99.90;;;;;;4977611;28;20471;-70
2021/09/22 07:51:03;;;;;;;62.13;32.10;;;12.30;99.90;;;;;;4975736;28;20473;-72
2021/09/22 07:53:30;;;;;;;79.70;30.80;;;12.50;99.90;;;;;;4979071;28;20469;-71
2021/09/22 07:55:57;;;;;;;62.33;29.90;;;12.70;99.90;;;;;;4973101;28;20467;-71
2021/09/22 07:58:26;;;;;;;58.67;31.00;;;13.00;99.90;;;;;;4973050;28;20473;-71
2021/09/22 08:00:53;;;;;;;54.57;29.60;;;13.10;99.90;;;;;;4983913;28;21376;-71
2021/09/22 08:03:20;;;;;;;48.73;29.80;;;13.20;99.90;;;;;;4979399;28;20462;-71
2021/09/22 08:05:48;;;;;;;62.50;30.63;;;13.30;99.90;;;;;;4974963;28;20471;-71
2021/09/22 08:08:15;;;;;;;46.97;30.40;;;13.40;99.90;;;;;;4985845;28;20467;-72
2021/09/22 08:10:42;;;;;;;62.27;30.13;;;13.40;99.90;;;;;;4981382;28;20471;-71
2021/09/22 08:13:09;;;;;;;47.23;29.47;;;13.60;99.90;;;;;;4978118;28;20869;-72
2021/09/22 08:15:38;;;;;;;36.87;27.57;;;13.90;99.90;;;;;;4981513;28;20466;-70
2021/09/22 08:18:05;;;;;;;53.13;28.43;;;14.20;99.90;;;;;;4983871;28;20521;-71
2021/09/22 08:20:32;;;;;;;44.00;26.13;;;14.50;99.90;;;;;;4980770;28;20459;-70
2021/09/22 08:23:00;;;;;;;46.93;29.10;;;14.70;99.90;;;;;;4981475;28;20486;-71
2021/09/22 08:25:27;;;;;;;42.87;28.10;;;15.00;99.90;;;;;;4980258;28;20954;-72
2021/09/22 08:27:55;;;;;;;72.50;28.50;;;15.30;99.90;;;;;;4986104;28;20480;-71
2021/09/22 08:30:23;;;;;;;47.57;24.40;;;15.70;99.90;;;;;;4984249;28;20455;-72
2021/09/22 08:32:52;;;;;;;48.23;25.67;;;16.00;99.90;;;;;;4982780;28;20557;-71
2021/09/22 08:35:19;;;;;;;35.40;24.13;;;16.10;99.90;;;;;;4979720;28;20846;-70
2021/09/22 08:37:47;;;;;;;47.60;24.30;;;16.20;99.90;;;;;;4975498;28;20949;-71
2021/09/22 08:40:14;;;;;;;42.60;23.83;;;16.30;99.90;;;;;;4985570;28;20464;-72
2021/09/22 08:42:42;;;;;;;33.60;23.70;;;16.50;99.90;;;;;;4987394;28;20497;-72
2021/09/22 08:45:12;;;;;;;31.63;25.00;;;16.80;99.90;;;;;;4979615;28;20463;-71
2021/09/22 08:47:42;;;;;;;32.57;23.97;;;16.70;99.90;;;;;;4983807;28;20497;-71
2021/09/22 08:50:11;;;;;;;27.70;24.20;;;16.80;99.90;;;;;;4976367;28;20948;-71
2021/09/22 08:52:40;;;;;;;28.47;23.50;;;16.90;99.90;;;;;;4980399;28;21064;-70
2021/09/22 08:55:08;;;;;;;33.60;25.00;;;16.90;99.90;;;;;;4972478;28;20494;-72
2021/09/22 08:57:35;;;;;;;27.07;22.40;;;17.10;99.90;;;;;;4991834;28;20454;-71
2021/09/22 09:00:03;;;;;;;34.50;24.40;;;17.20;99.90;;;;;;4982570;28;20453;-71
2021/09/22 09:02:39;;;;;;;28.73;24.87;;;17.20;99.90;;;;;;4974655;28;20491;-72
2021/09/22 09:05:09;;;;;;;28.70;23.43;;;17.30;99.90;;;;;;4971737;28;20459;-72
2021/09/22 09:07:47;;;;;;;27.67;24.77;;;17.50;99.90;;;;;;4981569;28;20467;-72
2021/09/22 09:10:14;;;;;;;40.13;25.20;;;17.60;99.90;;;;;;4989270;28;20467;-72
2021/09/22 09:12:42;;;;;;;30.97;27.47;;;17.60;99.90;;;;;;4975374;28;20474;-71
2021/09/22 09:15:11;;;;;;;32.33;27.20;;;17.70;99.90;;;;;;4977214;28;20462;-72
2021/09/22 09:17:42;;;;;;;27.97;24.33;;;18.00;99.90;;;;;;4975512;28;20462;-72
2021/09/22 09:20:19;;;;;;;29.90;25.60;;;18.20;99.90;;;;;;4979032;28;20562;-71
2021/09/22 09:23:07;;;;;;;32.70;26.13;;;18.20;99.90;;;;;;4981550;28;20498;-71
2021/09/22 09:25:39;;;;;;;32.70;26.03;;;18.30;99.90;;;;;;4983499;28;20712;-71
2021/09/22 09:28:24;;;;;;;29.97;24.47;;;18.50;99.90;;;;;;4982909;28;20557;-72
2021/09/22 09:30:54;;;;;;;27.57;24.50;;;19.00;99.90;;;;;;4986894;28;20454;-71
2021/09/22 09:33:52;;;;;;;29.80;25.47;;;19.60;99.90;;;;;;4985156;28;20476;-73
2021/09/22 09:36:25;;;;;;;24.87;22.30;;;20.30;99.90;;;;;;4958451;28;20973;-71
2021/09/22 09:38:58;;;;;;;25.40;22.80;;;20.40;99.90;;;;;;4978631;28;20514;-72
2021/09/22 09:41:31;;;;;;;33.13;23.13;;;20.70;99.90;;;;;;4985284;28;20455;-72
2021/09/22 09:43:58;;;;;;;28.73;24.03;;;20.60;99.90;;;;;;4979924;28;20466;-72
2021/09/22 09:46:27;;;;;;;32.73;24.37;;;20.50;99.90;;;;;;4989279;28;20540;-71
2021/09/22 09:48:57;;;;;;;32.40;23.23;;;20.90;99.90;;;;;;4986109;28;20458;-71
2021/09/22 09:51:33;;;;;;;28.33;24.80;;;20.90;99.90;;;;;;4981032;28;20466;-72
2021/09/22 09:54:20;;;;;;;44.43;24.70;;;21.60;99.90;;;;;;4978356;28;20507;-71
2021/09/22 09:56:49;;;;;;;31.73;22.90;;;21.70;99.90;;;;;;4978231;28;20462;-71
2021/09/22 09:59:18;;;;;;;23.23;20.93;;;21.60;99.90;;;;;;4975644;28;20458;-71
2021/09/22 10:01:46;;;;;;;27.07;23.40;;;22.20;99.90;;;;;;4989876;28;20867;-72
2021/09/22 10:04:15;;;;;;;31.60;22.80;;;21.70;99.90;;;;;;4987236;28;20462;-72
2021/09/22 10:06:44;;;;;;;26.40;24.20;;;21.60;99.90;;;;;;4979480;28;20557;-71
2021/09/22 10:09:13;;;;;;;26.90;24.10;;;21.80;99.90;;;;;;4986418;28;20459;-72
2021/09/22 10:11:44;;;;;;;33.23;23.27;;;21.70;99.90;;;;;;4978264;28;20486;-73
2021/09/22 10:14:13;;;;;;;27.30;22.57;;;21.30;99.90;;;;;;4975194;28;21138;-72
2021/09/22 10:16:41;;;;;;;27.80;24.60;;;21.50;99.90;;;;;;4986581;28;20788;-72
2021/09/22 10:19:10;;;;;;;29.57;23.20;;;22.00;99.90;;;;;;4986420;28;20459;-72
2021/09/22 10:21:38;;;;;;;29.30;22.33;;;22.30;99.90;;;;;;4981967;28;20557;-73
2021/09/22 10:24:09;;;;;;;34.73;22.63;;;23.50;99.90;;;;;;4976385;28;20529;-71
2021/09/22 10:26:39;;;;;;;24.93;20.27;;;23.80;99.90;;;;;;4979961;28;20485;-71
2021/09/22 10:29:26;;;;;;;31.53;21.40;;;24.50;99.50;;;;;;4978722;28;20468;-71
2021/09/22 10:31:54;;;;;;;36.33;21.90;;;24.70;98.60;;;;;;4975082;28;20490;-72
2021/09/22 10:34:33;;;;;;;28.17;21.40;;;24.40;97.60;;;;;;4984526;28;20546;-71
2021/09/22 10:37:01;;;;;;;30.53;22.57;;;23.80;97.40;;;;;;4974929;28;20470;-71
2021/09/22 10:39:43;;;;;;;24.23;21.80;;;24.30;97.30;;;;;;4981136;28;20459;-71
2021/09/22 10:42:25;;;;;;;26.93;21.60;;;24.40;97.00;;;;;;4988217;28;20581;-74
2021/09/22 10:45:11;;;;;;;26.23;21.40;;;25.30;96.20;;;;;;4975059;28;20955;-72
2021/09/22 10:47:38;;;;;;;25.87;23.00;;;25.90;96.60;;;;;;4984812;28;20824;-71
2021/09/22 10:50:06;;;;;;;24.57;21.97;;;26.80;93.80;;;;;;4982669;28;20929;-73
2021/09/22 10:52:36;;;;;;;22.90;20.80;;;26.60;92.10;;;;;;4986825;28;20860;-72
2021/09/22 10:55:13;;;;;;;25.20;22.60;;;26.20;91.80;;;;;;4982220;28;20462;-72
2021/09/22 10:57:44;;;;;;;25.00;22.77;;;26.20;91.80;;;;;;4982169;28;20699;-72
2021/09/22 11:00:13;;;;;;;25.50;23.30;;;26.50;91.60;;;;;;4979968;28;20475;-71
2021/09/22 11:02:46;;;;;;;28.30;23.33;;;26.00;90.90;;;;;;4991039;28;20582;-71
2021/09/22 11:05:16;;;;;;;24.20;22.10;;;26.10;89.70;;;;;;4982726;28;20455;-72
2021/09/22 11:07:58;;;;;;;26.23;23.80;;;26.20;90.20;;;;;;4983093;28;20469;-72
2021/09/22 11:10:41;;;;;;;27.70;25.10;;;25.10;89.80;;;;;;4983049;28;20558;-71
2021/09/22 11:13:38;;;;;;;28.13;25.53;;;25.00;88.90;;;;;;4981324;28;20483;-72
2021/09/22 11:16:14;;;;;;;26.60;24.33;;;25.60;88.60;;;;;;4986399;28;21093;-72
2021/09/22 11:18:46;;;;;;;26.40;24.03;;;26.10;85.40;;;;;;4977565;28;20537;-72
2021/09/22 11:21:14;;;;;;;28.53;26.00;;;25.70;85.80;;;;;;4981407;28;20486;-70
2021/09/22 11:23:42;;;;;;;27.30;24.73;;;25.60;84.40;;;;;;4988940;28;20499;-71
2021/09/22 11:26:11;;;;;;;26.77;24.40;;;25.80;83.70;;;;;;4978095;28;20459;-74
2021/09/22 11:28:48;;;;;;;26.70;24.57;;;25.90;85.50;;;;;;4978753;28;20469;-72
2021/09/22 11:31:15;;;;;;;26.03;24.03;;;26.30;86.10;;;;;;4982579;28;20469;-71
2021/09/22 11:33:42;;;;;;;25.80;23.60;;;27.00;84.70;;;;;;4981225;28;20465;-72
2021/09/22 11:36:09;;;;;;;26.33;24.13;;;26.90;81.90;;;;;;4977005;28;20467;-73
2021/09/22 11:38:37;;;;;;;25.23;23.13;;;26.60;80.80;;;;;;4984949;28;20459;-74
2021/09/22 11:41:04;;;;;;;25.87;23.57;;;26.00;83.80;;;;;;4983569;28;20458;-72
2021/09/22 11:43:31;;;;;;;26.43;24.13;;;26.60;81.90;;;;;;4972938;28;20602;-72
2021/09/22 11:46:01;;;;;;;25.67;23.23;;;26.30;81.10;;;;;;4967192;28;20465;-70
2021/09/22 11:48:30;;;;;;;25.87;23.53;;;25.90;81.10;;;;;;4979560;28;20470;-71
2021/09/22 11:50:58;;;;;;;28.73;23.80;;;24.90;81.90;;;;;;4974575;28;20469;-71
2021/09/22 11:53:30;;;;;;;25.40;22.80;;;25.60;82.40;;;;;;4981738;28;20463;-73
2021/09/22 11:55:58;;;;;;;27.13;24.53;;;26.10;80.70;;;;;;4985349;28;20896;-72
2021/09/22 11:58:26;;;;;;;24.43;22.33;;;26.10;79.90;;;;;;4977917;28;20957;-71
2021/09/22 12:00:55;;;;;;;23.30;21.40;;;25.90;79.60;;;;;;4977322;28;20454;-72
2021/09/22 12:03:26;;;;;;;23.60;21.70;;;25.90;79.40;;;;;;4975822;28;20890;-71
2021/09/22 12:06:09;;;;;;;23.83;21.60;;;26.70;77.80;;;;;;4980341;28;20798;-72
2021/09/22 12:08:37;;;;;;;23.60;21.87;;;27.30;78.40;;;;;;4972480;28;20474;-70
2021/09/22 12:11:05;;;;;;;23.93;21.93;;;27.70;74.30;;;;;;4981106;28;20469;-70
2021/09/22 12:13:39;;;;;;;23.80;22.00;;;27.90;73.40;;;;;;4975900;28;20470;-72
2021/09/22 12:16:06;;;;;;;23.80;21.87;;;28.20;72.10;;;;;;4985751;28;20461;-69
2021/09/22 12:18:34;;;;;;;23.60;21.50;;;28.70;70.60;;;;;;4985863;28;20797;-69
2021/09/22 12:21:03;;;;;;;24.97;22.73;;;28.90;70.50;;;;;;4982410;28;20462;-69
2021/09/22 12:23:33;;;;;;;22.47;20.70;;;28.20;70.20;;;;;;4977305;28;20512;-71
2021/09/22 12:26:10;;;;;;;24.27;22.37;;;27.60;70.70;;;;;;4981349;28;21040;-70
2021/09/22 12:28:38;;;;;;;22.50;20.60;;;27.20;70.50;;;;;;4979810;28;20985;-69
2021/09/22 12:31:17;;;;;;;22.40;20.50;;;27.20;70.30;;;;;;4973520;28;20476;-69
2021/09/22 12:33:46;;;;;;;21.47;19.60;;;28.00;68.70;;;;;;4987573;28;20461;-72
2021/09/22 12:36:15;;;;;;;21.10;19.40;;;27.90;69.50;;;;;;4977279;28;21070;-70
2021/09/22 12:38:52;;;;;;;20.60;18.93;;;27.60;69.90;;;;;;4982264;28;20462;-69
2021/09/22 12:41:20;;;;;;;23.40;21.37;;;27.90;68.20;;;;;;4973328;28;20887;-72